createdAt,value
2023-03-30T00:01:36.327Z,100985.63
2023-03-30T00:05:49.853Z,100982.85
2023-03-30T00:08:21.629Z,100981.06
2023-03-30T00:11:06.151Z,100981.05
2023-03-30T00:13:47.318Z,100976.25
2023-03-30T00:17:26.301Z,100967.81
2023-03-30T00:20:20.016Z,100964.45
2023-03-30T00:23:14.341Z,100960.73
2023-03-30T00:25:59.993Z,100955.45
2023-03-30T00:29:36.441Z,100954.39
2023-03-30T00:33:46.525Z,100948.83
2023-03-30T00:36:47.411Z,100943.48
2023-03-30T00:39:38.612Z,100940.90
2023-03-30T00:42:37.853Z,100934.39
2023-03-30T00:45:51.435Z,100926.52
2023-03-30T00:49:10.755Z,100923.64
2023-03-30T00:53:31.074Z,100925.56
2023-03-30T00:57:39.394Z,100925.80
2023-03-30T01:01:42.188Z,100919.70
2023-03-30T01:05:04.752Z,100910.27
2023-03-30T01:08:53.638Z,100908.87
2023-03-30T01:12:06.709Z,100904.39
2023-03-30T01:14:42.030Z,100897.51
2023-03-30T01:17:36.755Z,100893.05
2023-03-30T01:21:24.500Z,100888.48
2023-03-30T01:25:11.647Z,100883.39
2023-03-30T01:28:51.254Z,100882.98
2023-03-30T01:32:03.459Z,100885.55
2023-03-30T01:34:52.019Z,100875.40
2023-03-30T01:38:31.647Z,100868.60
2023-03-30T01:42:37.722Z,100864.11
2023-03-30T01:46:03.539Z,100866.67
2023-03-30T01:48:53.694Z,100857.16
2023-03-30T01:53:11.899Z,100854.74
2023-03-30T01:56:40.144Z,100849.73
2023-03-30T02:00:06.795Z,100849.75
2023-03-30T02:03:14.175Z,100844.02
2023-03-30T02:06:54.609Z,100845.41
2023-03-30T02:09:58.331Z,100838.94
2023-03-30T02:13:32.074Z,100838.31
2023-03-30T02:17:02.095Z,100833.95
2023-03-30T02:20:13.807Z,100832.07
2023-03-30T02:23:09.107Z,100828.23
2023-03-30T02:25:58.726Z,100829.13
2023-03-30T02:28:32.812Z,100824.91
2023-03-30T02:31:45.906Z,100821.57
2023-03-30T02:35:11.657Z,100818.45
2023-03-30T02:38:21.716Z,100814.98
2023-03-30T02:42:00.931Z,100811.48
2023-03-30T02:45:15.697Z,100803.92
2023-03-30T02:49:10.535Z,100805.55
2023-03-30T02:52:25.018Z,100798.01
2023-03-30T02:56:07.223Z,100797.14
2023-03-30T03:00:26.183Z,100794.24
2023-03-30T03:04:25.274Z,100792.55
2023-03-30T03:08:08.346Z,100787.48
2023-03-30T03:11:08.628Z,100789.78
2023-03-30T03:15:38.087Z,100787.31
2023-03-30T03:19:41.393Z,100784.11
2023-03-30T03:23:17.762Z,100786.05
2023-03-30T03:27:40.926Z,100780.84
2023-03-30T03:32:06.374Z,100782.48
2023-03-30T03:36:25.728Z,100775.89
2023-03-30T03:40:29.943Z,100765.67
2023-03-30T03:44:16.024Z,100762.86
2023-03-30T03:47:33.088Z,100755.69
2023-03-30T03:51:12.512Z,100752.71
2023-03-30T03:55:41.427Z,100743.89
2023-03-30T03:59:17.069Z,100726.31
2023-03-30T04:02:24.975Z,100713.81
2023-03-30T04:06:38.601Z,100698.06
2023-03-30T04:10:34.729Z,100691.98
2023-03-30T04:14:49.697Z,100694.71
2023-03-30T04:18:51.903Z,100686.98
2023-03-30T04:23:23.044Z,100686.14
2023-03-30T04:27:49.822Z,100692.70
2023-03-30T04:31:56.284Z,100690.02
2023-03-30T04:35:33.545Z,100680.11
2023-03-30T04:39:06.936Z,100679.58
2023-03-30T04:43:17.174Z,100679.69
2023-03-30T04:47:18.029Z,100669.36
2023-03-30T04:51:42.908Z,100668.61
2023-03-30T04:55:08.645Z,100664.17
2023-03-30T04:58:48.239Z,100652.33
2023-03-30T05:02:16.735Z,100652.05
2023-03-30T05:06:21.858Z,100648.91
2023-03-30T05:10:12.897Z,100646.14
2023-03-30T05:14:41.702Z,100645.44
2023-03-30T05:18:20.499Z,100643.67
2023-03-30T05:22:54.438Z,100630.23
2023-03-30T05:26:54.061Z,100630.86
2023-03-30T05:30:57.142Z,100633.20
2023-03-30T05:34:31.473Z,100629.77
2023-03-30T05:38:32.751Z,100627.01
2023-03-30T05:43:02.254Z,100617.56
2023-03-30T05:47:08.450Z,100611.45
2023-03-30T05:51:32.313Z,100592.02
2023-03-30T05:55:51.157Z,100579.55
2023-03-30T06:00:34.545Z,100576.05
2023-03-30T06:03:37.483Z,100573.61
2023-03-30T06:07:18.816Z,100573.91
2023-03-30T06:10:38.079Z,100582.06
2023-03-30T06:14:03.293Z,100587.83
2023-03-30T06:17:10.039Z,100596.80
2023-03-30T06:20:42.378Z,100596.02
2023-03-30T06:24:27.057Z,100585.02
2023-03-30T06:27:41.957Z,100581.23
2023-03-30T06:30:35.363Z,100574.45
2023-03-30T06:33:33.203Z,100572.01
2023-03-30T06:36:58.530Z,100575.05
2023-03-30T06:39:57.292Z,100565.54
2023-03-30T06:43:09.638Z,100567.84
2023-03-30T06:46:26.757Z,100553.80
2023-03-30T06:49:58.387Z,100544.48
2023-03-30T06:54:15.751Z,100534.37
2023-03-30T06:58:15.502Z,100537.83
2023-03-30T07:02:24.671Z,100541.88
2023-03-30T07:06:23.630Z,100530.63
2023-03-30T07:09:16.519Z,100531.75
2023-03-30T07:12:23.790Z,100531.04
2023-03-30T07:14:52.893Z,100525.96
2023-03-30T07:18:25.355Z,100514.57
2023-03-30T07:22:00.777Z,100510.80
2023-03-30T07:25:40.349Z,100510.35
2023-03-30T07:28:58.963Z,100498.89
2023-03-30T07:32:18.178Z,100491.36
2023-03-30T07:35:43.518Z,100488.83
2023-03-30T07:39:15.649Z,100479.37
2023-03-30T07:42:22.720Z,100470.92
2023-03-30T07:45:23.220Z,100465.45
2023-03-30T07:47:59.763Z,100464.80
2023-03-30T07:51:13.934Z,100465.88
2023-03-30T07:55:46.943Z,100463.73
2023-03-30T07:59:27.390Z,100463.37
2023-03-30T08:03:00.820Z,100460.09
2023-03-30T08:06:41.465Z,100462.40
2023-03-30T08:10:19.074Z,100469.10
2023-03-30T08:13:40.470Z,100464.65
2023-03-30T08:16:48.281Z,100463.91
2023-03-30T08:20:04.406Z,100457.20
2023-03-30T08:23:06.668Z,100454.23
2023-03-30T08:26:47.636Z,100446.25
2023-03-30T08:30:49.448Z,100432.11
2023-03-30T08:34:18.349Z,100390.95
2023-03-30T08:38:37.787Z,100377.52
2023-03-30T08:41:48.818Z,100375.26
2023-03-30T08:45:34.857Z,100378.00
2023-03-30T08:49:28.973Z,100384.73
2023-03-30T08:52:54.255Z,100397.62
2023-03-30T08:56:29.081Z,100394.48
2023-03-30T09:00:53.693Z,100387.84
2023-03-30T09:05:03.361Z,100386.84
2023-03-30T09:09:06.472Z,100371.60
2023-03-30T09:13:18.917Z,100358.50
2023-03-30T09:17:34.126Z,100349.16
2023-03-30T09:21:17.704Z,100334.88
2023-03-30T09:24:58.333Z,100321.20
2023-03-30T09:29:25.970Z,100311.73
2023-03-30T09:32:42.152Z,100313.63
2023-03-30T09:36:00.125Z,100316.90
2023-03-30T09:40:18.506Z,100317.52
2023-03-30T09:44:19.265Z,100316.30
2023-03-30T09:48:01.876Z,100329.66
2023-03-30T09:51:42.211Z,100321.95
2023-03-30T09:55:55.533Z,100308.02
2023-03-30T09:59:58.264Z,100305.62
2023-03-30T10:03:39.604Z,100318.73
2023-03-30T10:08:01.695Z,100308.28
2023-03-30T10:11:42.053Z,100300.41
2023-03-30T10:15:39.209Z,100297.60
2023-03-30T10:19:55.323Z,100292.36
2023-03-30T10:23:24.617Z,100295.27
2023-03-30T10:27:28.680Z,100296.00
2023-03-30T10:31:38.144Z,100287.59
2023-03-30T10:35:49.645Z,100286.64
2023-03-30T10:39:59.255Z,100283.63
2023-03-30T10:43:30.386Z,100283.35
2023-03-30T10:46:44.800Z,100285.77
2023-03-30T10:50:04.182Z,100277.83
2023-03-30T10:53:19.741Z,100277.94
2023-03-30T10:57:23.136Z,100276.48
2023-03-30T11:00:58.658Z,100286.42
2023-03-30T11:03:57.686Z,100294.89
2023-03-30T11:06:48.598Z,100297.15
2023-03-30T11:09:25.405Z,100308.04
2023-03-30T11:12:39.816Z,100306.81
2023-03-30T11:16:52.054Z,100303.82
2023-03-30T11:20:55.733Z,100300.85
2023-03-30T11:24:55.480Z,100289.81
2023-03-30T11:27:46.812Z,100292.05
2023-03-30T11:30:59.641Z,100293.51
2023-03-30T11:34:24.192Z,100289.31
2023-03-30T11:37:33.469Z,100281.02
2023-03-30T11:40:42.158Z,100273.77
2023-03-30T11:43:39.547Z,100264.84
2023-03-30T11:46:45.623Z,100264.37
2023-03-30T11:50:25.482Z,100266.16
2023-03-30T11:54:39.053Z,100261.55
2023-03-30T11:58:46.697Z,100257.05
2023-03-30T12:02:30.953Z,100251.95
2023-03-30T12:05:48.549Z,100244.46
2023-03-30T12:09:40.963Z,100240.45
2023-03-30T12:12:59.699Z,100236.58
2023-03-30T12:16:32.263Z,100234.81
2023-03-30T12:19:56.712Z,100234.17
2023-03-30T12:23:56.528Z,100222.73
2023-03-30T12:32:29.627Z,100207.69
2023-03-30T13:29:37.188Z,100101.45
2023-03-30T13:33:43.872Z,100099.03
2023-03-30T13:37:48.943Z,100096.83
2023-03-30T13:42:15.517Z,100091.73
2023-03-30T13:46:13.295Z,100081.67
2023-03-30T13:50:30.402Z,100063.48
2023-03-30T13:54:15.353Z,100063.90
2023-03-30T13:58:35.343Z,100050.49
2023-03-30T14:02:15.600Z,100046.63
2023-03-30T14:05:36.891Z,100029.59
2023-03-30T14:09:37.898Z,100025.48
2023-03-30T14:13:14.739Z,100021.59
2023-03-30T14:16:14.017Z,100019.50
2023-03-30T14:20:05.456Z,100018.67
2023-03-30T14:24:17.552Z,100013.09
2023-03-30T14:28:35.118Z,100006.23
2023-03-30T14:32:27.186Z,100000.79
2023-03-30T14:36:24.377Z,99991.77
2023-03-30T14:56:20.099Z,100034.30
2023-03-30T15:00:37.883Z,100070.85
2023-03-30T15:08:44.423Z,100043.21
2023-03-30T15:12:34.242Z,100020.86
2023-03-30T15:16:43.893Z,100014.33
2023-03-30T15:21:04.323Z,100011.27
2023-03-30T15:25:19.236Z,100021.62
2023-03-30T15:29:49.589Z,100035.59
2023-03-30T15:34:24.204Z,100055.70
2023-03-30T16:01:35.075Z,100049.25
2023-03-30T16:05:54.213Z,100052.59
2023-03-30T16:10:06.160Z,100053.61
2023-03-30T16:14:25.828Z,100052.08
2023-03-30T16:18:39.454Z,100054.21
2023-03-30T16:23:01.217Z,100051.40
2023-03-30T16:27:12.732Z,100051.27
2023-03-30T16:31:21.872Z,100053.38
2023-03-30T16:35:34.671Z,100063.42
2023-03-30T16:39:59.417Z,100080.03
2023-03-30T16:44:03.836Z,100099.23
2023-03-30T16:47:51.007Z,100109.23
2023-03-30T16:52:20.429Z,100107.98
2023-03-30T16:56:23.530Z,100104.39
2023-03-30T17:00:58.270Z,100099.65
2023-03-30T17:05:16.323Z,100097.59
2023-03-30T17:38:09.506Z,100137.80
2023-03-30T17:42:17.790Z,100148.56
2023-03-30T17:46:47.093Z,100143.46
2023-03-30T17:51:06.624Z,100154.73
2023-03-30T17:55:15.457Z,100169.95
2023-03-30T18:17:28.039Z,100204.32
2023-03-30T18:34:00.702Z,100192.79
2023-03-30T18:38:13.000Z,100217.27
2023-03-30T18:42:43.680Z,100223.38
2023-03-30T18:47:12.693Z,100222.59
2023-03-30T18:51:33.218Z,100237.10
2023-03-30T18:55:51.019Z,100242.13
2023-03-30T19:00:11.718Z,100245.10
2023-03-30T19:04:23.597Z,100236.63
2023-03-30T19:40:43.226Z,100260.27
2023-03-30T19:44:50.421Z,100259.56
2023-03-30T19:48:51.468Z,100251.91
2023-03-30T19:53:03.340Z,100238.34
2023-03-30T19:57:11.879Z,100236.89
2023-03-30T21:17:53.176Z,100267.20
2023-03-30T21:22:22.369Z,100271.83
2023-03-30T21:26:51.716Z,100275.38
2023-03-30T21:31:14.842Z,100280.70
2023-03-30T21:57:11.012Z,100266.31
2023-03-30T22:01:31.451Z,100269.56
2023-03-30T22:06:00.396Z,100267.27
2023-03-30T22:10:30.965Z,100252.57
2023-03-30T22:14:48.740Z,100246.35
2023-03-30T22:44:41.777Z,100231.89
2023-03-30T22:48:59.878Z,100220.82
2023-03-30T22:53:29.161Z,100215.52
2023-03-30T22:57:58.570Z,100209.52
2023-03-30T23:02:27.919Z,100207.02
2023-03-30T23:06:58.365Z,100203.27
2023-03-30T23:32:39.172Z,100195.77
2023-03-30T23:36:08.681Z,100196.35
2023-03-30T23:40:38.412Z,100189.92
2023-03-30T23:44:56.558Z,100184.70
